createdAt,value
2023-04-08T00:01:33.379Z,11.00
2023-04-08T00:04:03.407Z,11.00
2023-04-08T00:06:31.885Z,11.00
2023-04-08T00:09:00.277Z,11.00
2023-04-08T00:11:29.608Z,11.00
2023-04-08T00:13:58.389Z,11.00
2023-04-08T00:16:27.536Z,11.00
2023-04-08T00:18:56.945Z,11.00
2023-04-08T00:21:28.464Z,11.00
2023-04-08T00:23:57.261Z,11.00
2023-04-08T00:26:26.470Z,11.00
2023-04-08T00:28:55.043Z,11.00
2023-04-08T00:31:23.576Z,11.00
2023-04-08T00:33:52.606Z,11.00
2023-04-08T00:36:21.062Z,11.00
2023-04-08T00:38:51.252Z,11.00
2023-04-08T00:41:19.745Z,11.00
2023-04-08T00:43:50.703Z,11.00
2023-04-08T00:46:19.257Z,11.00
2023-04-08T00:48:47.899Z,11.00
2023-04-08T00:51:16.400Z,11.00
2023-04-08T00:53:44.905Z,11.00
2023-04-08T00:56:16.001Z,11.00
2023-04-08T00:58:45.703Z,11.00
2023-04-08T01:01:20.107Z,11.00
2023-04-08T01:03:58.983Z,11.00
2023-04-08T01:06:34.572Z,11.00
2023-04-08T01:09:07.343Z,11.00
2023-04-08T01:11:39.734Z,11.00
2023-04-08T01:14:10.903Z,11.00
2023-04-08T01:16:42.415Z,11.00
2023-04-08T01:19:17.006Z,10.90
2023-04-08T01:21:46.478Z,10.90
2023-04-08T01:24:21.365Z,10.90
2023-04-08T01:26:51.956Z,10.90
2023-04-08T01:29:21.697Z,11.00
2023-04-08T01:31:58.221Z,11.00
2023-04-08T01:34:30.874Z,10.90
2023-04-08T01:37:01.091Z,10.90
2023-04-08T01:39:30.969Z,10.90
2023-04-08T01:42:02.520Z,10.90
2023-04-08T01:44:33.515Z,10.90
2023-04-08T01:47:03.545Z,10.90
2023-04-08T01:49:32.692Z,10.90
2023-04-08T01:52:02.558Z,10.90
2023-04-08T01:54:31.319Z,10.90
2023-04-08T01:57:03.797Z,10.90
2023-04-08T01:59:36.290Z,10.90
2023-04-08T02:02:08.517Z,10.90
2023-04-08T02:04:37.659Z,10.90
2023-04-08T02:07:07.079Z,10.90
2023-04-08T02:09:35.721Z,10.90
2023-04-08T02:12:06.533Z,10.90
2023-04-08T02:14:35.232Z,10.90
2023-04-08T02:17:11.615Z,10.90
2023-04-08T02:19:47.636Z,10.90
2023-04-08T02:22:25.211Z,10.90
2023-04-08T02:24:54.350Z,10.90
2023-04-08T02:27:26.319Z,10.90
2023-04-08T02:29:57.154Z,10.90
2023-04-08T02:32:26.644Z,10.90
2023-04-08T02:35:00.828Z,10.90
2023-04-08T02:37:30.281Z,10.90
2023-04-08T02:39:58.931Z,10.90
2023-04-08T02:42:28.797Z,10.90
2023-04-08T02:44:58.587Z,10.90
2023-04-08T02:47:27.126Z,10.90
2023-04-08T02:49:56.013Z,10.90
2023-04-08T02:52:24.452Z,10.90
2023-04-08T02:54:56.494Z,10.90
2023-04-08T02:57:24.969Z,10.90
2023-04-08T02:59:56.077Z,10.90
2023-04-08T03:02:24.604Z,10.90
2023-04-08T03:04:53.087Z,10.90
2023-04-08T03:07:22.067Z,10.90
2023-04-08T03:09:52.749Z,10.90
2023-04-08T03:12:21.145Z,10.90
2023-04-08T03:14:49.753Z,10.90
2023-04-08T03:17:19.919Z,10.90
2023-04-08T03:19:48.501Z,10.90
2023-04-08T03:22:16.874Z,10.90
2023-04-08T03:24:46.648Z,10.90
2023-04-08T03:27:15.249Z,10.90
2023-04-08T03:29:43.738Z,10.90
2023-04-08T03:32:12.311Z,10.90
2023-04-08T03:34:42.296Z,10.80
2023-04-08T03:37:10.997Z,10.80
2023-04-08T03:39:39.852Z,10.80
2023-04-08T03:42:08.516Z,10.80
2023-04-08T03:44:36.858Z,10.80
2023-04-08T03:47:06.220Z,10.80
2023-04-08T03:49:34.630Z,10.80
2023-04-08T03:52:04.555Z,10.80
2023-04-08T03:54:33.186Z,10.80
2023-04-08T03:57:01.625Z,10.80
2023-04-08T03:59:30.415Z,10.80
2023-04-08T04:01:58.739Z,10.80
2023-04-08T04:04:27.647Z,10.80
2023-04-08T04:06:56.500Z,10.80
2023-04-08T04:09:26.809Z,10.80
2023-04-08T04:11:55.530Z,10.80
2023-04-08T04:14:23.877Z,10.80
2023-04-08T04:16:52.530Z,10.80
2023-04-08T04:19:20.945Z,10.80
2023-04-08T04:21:49.323Z,10.80
2023-04-08T04:24:17.964Z,10.80
2023-04-08T04:26:49.079Z,10.80
2023-04-08T04:29:17.602Z,10.80
2023-04-08T04:31:46.342Z,10.80
2023-04-08T04:34:15.141Z,10.80
2023-04-08T04:36:44.534Z,10.80
2023-04-08T04:39:12.967Z,10.80
2023-04-08T04:41:41.357Z,10.80
2023-04-08T04:44:12.222Z,10.80
2023-04-08T04:46:40.810Z,10.80
2023-04-08T04:49:09.469Z,10.80
2023-04-08T04:51:38.069Z,10.80
2023-04-08T04:54:06.582Z,10.80
2023-04-08T04:56:34.918Z,10.80
2023-04-08T04:59:03.291Z,10.80
2023-04-08T05:01:33.129Z,10.80
2023-04-08T05:04:01.570Z,10.80
2023-04-08T05:06:30.105Z,10.80
2023-04-08T05:08:58.887Z,10.80
2023-04-08T05:11:28.575Z,10.80
2023-04-08T05:13:57.398Z,10.80
2023-04-08T05:16:26.728Z,10.80
2023-04-08T05:18:56.908Z,10.80
2023-04-08T05:21:25.848Z,10.80
2023-04-08T05:23:54.607Z,10.80
2023-04-08T05:26:23.180Z,10.80
2023-04-08T05:28:52.835Z,10.80
2023-04-08T05:31:22.805Z,10.80
2023-04-08T05:33:51.200Z,10.70
2023-04-08T05:36:21.318Z,10.80
2023-04-08T05:38:50.355Z,10.70
2023-04-08T05:41:19.938Z,10.80
2023-04-08T05:43:48.770Z,10.70
2023-04-08T05:46:17.596Z,10.70
2023-04-08T05:48:46.290Z,10.70
2023-04-08T05:51:15.606Z,10.70
2023-04-08T05:53:47.242Z,10.70
2023-04-08T05:56:16.354Z,10.70
2023-04-08T05:58:45.153Z,10.70
2023-04-08T06:01:14.111Z,10.70
2023-04-08T06:03:43.052Z,10.70
2023-04-08T06:06:13.143Z,10.70
2023-04-08T06:08:41.913Z,10.70
2023-04-08T06:11:12.363Z,10.70
2023-04-08T06:13:40.949Z,10.70
2023-04-08T06:16:13.884Z,10.70
2023-04-08T06:18:42.543Z,10.70
2023-04-08T06:21:11.641Z,10.70
2023-04-08T06:23:40.108Z,10.70
2023-04-08T06:26:08.592Z,10.70
2023-04-08T06:28:38.253Z,10.70
2023-04-08T06:31:07.122Z,10.70
2023-04-08T06:33:35.447Z,10.70
2023-04-08T06:36:05.060Z,10.70
2023-04-08T06:38:34.034Z,10.70
2023-04-08T06:41:07.519Z,10.60
2023-04-08T06:43:38.083Z,10.50
2023-04-08T06:46:07.086Z,10.50
2023-04-08T06:48:37.883Z,10.50
2023-04-08T06:51:42.745Z,10.50
2023-04-08T06:54:53.358Z,10.60
2023-04-08T06:57:21.728Z,10.70
2023-04-08T06:59:53.045Z,10.70
2023-04-08T07:02:22.938Z,10.80
2023-04-08T07:04:51.307Z,10.80
2023-04-08T07:07:20.049Z,10.80
2023-04-08T07:09:49.414Z,10.90
2023-04-08T07:12:19.019Z,10.90
2023-04-08T07:14:48.235Z,10.90
2023-04-08T07:17:19.347Z,11.00
2023-04-08T07:19:48.168Z,11.00
2023-04-08T07:22:17.953Z,11.00
2023-04-08T07:24:49.791Z,11.00
2023-04-08T07:27:21.601Z,11.00
2023-04-08T07:29:54.689Z,11.00
2023-04-08T07:32:25.277Z,10.90
2023-04-08T07:34:53.955Z,10.90
2023-04-08T07:37:23.419Z,11.00
2023-04-08T07:39:54.879Z,11.00
2023-04-08T07:42:23.221Z,11.00
2023-04-08T07:44:52.404Z,11.00
2023-04-08T07:47:21.718Z,11.00
2023-04-08T07:49:51.798Z,11.00
2023-04-08T07:52:20.277Z,11.00
2023-04-08T07:54:48.663Z,11.00
2023-04-08T07:57:17.376Z,11.00
2023-04-08T07:59:45.815Z,11.00
2023-04-08T08:02:14.284Z,11.00
2023-04-08T08:04:43.816Z,11.00
2023-04-08T08:07:13.577Z,11.10
2023-04-08T08:09:42.501Z,11.10
2023-04-08T08:12:11.724Z,11.10
2023-04-08T08:14:40.048Z,11.10
2023-04-08T08:17:08.706Z,11.10
2023-04-08T08:19:37.084Z,11.10
2023-04-08T08:22:05.818Z,11.10
2023-04-08T08:24:35.774Z,11.10
2023-04-08T08:27:06.085Z,11.10
2023-04-08T08:29:34.660Z,11.10
2023-04-08T08:32:03.632Z,11.20
2023-04-08T08:34:32.149Z,11.20
2023-04-08T08:37:00.567Z,11.20
2023-04-08T08:39:29.035Z,11.20
2023-04-08T08:41:59.013Z,11.20
2023-04-08T08:44:27.880Z,11.20
2023-04-08T08:46:56.351Z,11.20
2023-04-08T08:49:24.976Z,11.20
2023-04-08T08:51:55.355Z,11.20
2023-04-08T08:54:23.732Z,11.20
2023-04-08T08:56:52.179Z,11.20
2023-04-08T08:59:22.100Z,11.20
2023-04-08T09:01:50.909Z,11.20
2023-04-08T09:04:22.764Z,11.40
2023-04-08T09:07:05.983Z,11.40
2023-04-08T09:09:50.245Z,11.40
2023-04-08T09:12:18.755Z,11.40
2023-04-08T09:14:48.917Z,11.40
2023-04-08T09:17:17.589Z,11.40
2023-04-08T09:20:09.956Z,11.40
2023-04-08T09:23:00.825Z,11.40
2023-04-08T09:25:32.311Z,11.40
2023-04-08T09:28:02.943Z,11.40
2023-04-08T09:30:34.961Z,11.40
2023-04-08T09:33:07.393Z,11.40
2023-04-08T09:35:36.699Z,11.40
2023-04-08T09:38:05.708Z,11.50
2023-04-08T09:40:36.792Z,11.50
2023-04-08T09:43:08.464Z,11.50
2023-04-08T09:45:41.298Z,11.50
2023-04-08T09:48:16.295Z,11.50
2023-04-08T09:50:48.548Z,11.50
2023-04-08T09:53:23.324Z,11.50
2023-04-08T09:55:54.623Z,11.50
2023-04-08T09:58:27.702Z,11.50
2023-04-08T10:00:57.842Z,11.50
2023-04-08T10:03:31.983Z,11.50
2023-04-08T10:06:03.597Z,11.50
2023-04-08T10:08:33.067Z,11.50
2023-04-08T10:11:01.849Z,11.40
2023-04-08T10:13:31.985Z,11.40
2023-04-08T10:16:22.374Z,11.40
2023-04-08T10:18:53.104Z,11.50
2023-04-08T10:21:39.186Z,11.40
2023-04-08T10:24:11.950Z,11.40
2023-04-08T10:26:44.832Z,11.40
2023-04-08T10:29:35.765Z,11.40
2023-04-08T10:32:09.530Z,11.40
2023-04-08T10:34:54.686Z,11.40
2023-04-08T10:37:23.817Z,11.40
2023-04-08T10:39:55.204Z,11.30
2023-04-08T10:42:29.717Z,11.30
2023-04-08T10:45:02.952Z,11.30
2023-04-08T10:47:33.604Z,11.30
2023-04-08T10:50:02.596Z,11.30
2023-04-08T10:52:31.025Z,11.30
2023-04-08T10:54:59.849Z,11.30
2023-04-08T10:57:28.698Z,11.30
2023-04-08T10:59:57.036Z,11.30
2023-04-08T11:02:35.737Z,11.30
2023-04-08T11:05:05.041Z,11.30
2023-04-08T11:07:34.775Z,11.30
2023-04-08T11:10:05.431Z,11.30
2023-04-08T11:12:38.652Z,11.30
2023-04-08T11:15:08.230Z,11.30
2023-04-08T11:17:38.783Z,11.30
2023-04-08T11:20:09.535Z,11.30
2023-04-08T11:22:38.303Z,11.40
2023-04-08T11:25:10.327Z,11.40
2023-04-08T11:27:40.698Z,11.40
2023-04-08T11:30:11.004Z,11.40
2023-04-08T11:32:42.671Z,11.40
2023-04-08T11:35:12.622Z,11.30
2023-04-08T11:37:42.461Z,11.30
2023-04-08T11:40:12.887Z,11.30
2023-04-08T11:42:41.906Z,11.30
2023-04-08T11:45:14.857Z,11.30
2023-04-08T11:47:45.962Z,11.30
2023-04-08T11:50:14.479Z,11.30
2023-04-08T11:52:47.797Z,11.30
2023-04-08T11:55:24.604Z,11.30
2023-04-08T11:57:53.513Z,11.30
2023-04-08T12:00:22.605Z,11.30
2023-04-08T12:02:53.061Z,11.30
2023-04-08T12:05:22.324Z,11.30
2023-04-08T12:07:51.699Z,11.40
2023-04-08T12:10:20.724Z,11.40
2023-04-08T12:12:51.551Z,11.50
2023-04-08T12:15:20.595Z,11.60
2023-04-08T12:17:49.770Z,11.60
2023-04-08T12:20:20.816Z,11.60
2023-04-08T12:22:49.402Z,11.60
2023-04-08T12:25:18.042Z,11.60
2023-04-08T12:27:47.017Z,11.60
2023-04-08T12:30:16.584Z,11.60
2023-04-08T12:32:48.370Z,11.60
2023-04-08T12:35:17.300Z,11.60
2023-04-08T12:37:47.471Z,11.50
2023-04-08T12:40:19.213Z,11.50
2023-04-08T12:42:48.483Z,11.50
2023-04-08T12:45:16.922Z,11.50
2023-04-08T12:47:45.552Z,11.50
2023-04-08T12:50:15.366Z,11.50
2023-04-08T12:52:43.677Z,11.50
2023-04-08T12:55:13.476Z,11.50
2023-04-08T12:57:41.891Z,11.60
2023-04-08T13:00:12.238Z,11.60
2023-04-08T13:02:42.231Z,11.70
2023-04-08T13:05:11.189Z,11.70
2023-04-08T13:07:39.406Z,11.70
2023-04-08T13:10:09.320Z,11.70
2023-04-08T13:12:40.400Z,11.70
2023-04-08T13:15:10.249Z,11.70
2023-04-08T13:17:38.815Z,11.70
2023-04-08T13:20:10.153Z,11.70
2023-04-08T13:22:38.668Z,11.70
2023-04-08T13:25:07.753Z,11.70
2023-04-08T13:27:36.251Z,11.70
2023-04-08T13:30:07.228Z,11.70
2023-04-08T13:32:35.875Z,11.70
2023-04-08T13:35:04.880Z,11.70
2023-04-08T13:37:33.378Z,11.70
2023-04-08T13:40:02.745Z,11.70
2023-04-08T13:42:32.916Z,11.70
2023-04-08T13:45:01.826Z,11.70
2023-04-08T13:47:32.749Z,11.70
2023-04-08T13:50:01.553Z,11.70
2023-04-08T13:52:30.314Z,11.70
2023-04-08T13:54:58.864Z,11.70
2023-04-08T13:57:27.469Z,11.70
2023-04-08T13:59:56.746Z,11.70
2023-04-08T14:02:27.757Z,11.70
2023-04-08T14:04:58.490Z,11.70
2023-04-08T14:07:27.144Z,11.80
2023-04-08T14:09:55.736Z,11.80
2023-04-08T14:12:24.037Z,11.80
2023-04-08T14:14:52.368Z,11.80
2023-04-08T14:17:21.263Z,11.80
2023-04-08T14:19:49.842Z,11.80
2023-04-08T14:22:20.020Z,11.80
2023-04-08T14:24:49.015Z,11.80
2023-04-08T14:27:17.611Z,11.90
2023-04-08T14:29:46.109Z,11.80
2023-04-08T14:32:14.468Z,11.80
2023-04-08T14:34:43.297Z,11.80
2023-04-08T14:37:12.457Z,11.80
2023-04-08T14:39:42.222Z,11.80
2023-04-08T14:42:10.921Z,11.80
2023-04-08T14:44:39.654Z,11.70
2023-04-08T14:47:08.205Z,11.70
2023-04-08T14:49:37.151Z,11.70
2023-04-08T14:52:05.898Z,11.70
2023-04-08T14:54:34.570Z,11.70
2023-04-08T14:57:04.291Z,11.70
2023-04-08T14:59:32.726Z,11.70
2023-04-08T15:02:01.900Z,11.70
2023-04-08T15:04:30.910Z,11.70
2023-04-08T15:06:59.539Z,11.70
2023-04-08T15:09:28.102Z,11.70
2023-04-08T15:11:58.386Z,11.60
2023-04-08T15:14:28.485Z,11.70
2023-04-08T15:16:56.859Z,11.70
2023-04-08T15:19:25.260Z,11.70
2023-04-08T15:21:53.648Z,11.70
2023-04-08T15:24:22.232Z,11.60
2023-04-08T15:26:50.799Z,11.70
2023-04-08T15:29:19.875Z,11.70
2023-04-08T15:31:49.857Z,11.60
2023-04-08T15:34:18.342Z,11.60
2023-04-08T15:36:47.590Z,11.60
2023-04-08T15:39:16.165Z,11.70
2023-04-08T15:41:44.732Z,11.60
2023-04-08T15:44:13.188Z,11.70
2023-04-08T15:46:41.700Z,11.60
2023-04-08T15:49:15.070Z,11.60
2023-04-08T15:51:44.816Z,11.70
2023-04-08T15:54:13.902Z,11.60
2023-04-08T15:56:42.479Z,11.70
2023-04-08T15:59:11.146Z,11.70
2023-04-08T16:01:39.599Z,11.70
2023-04-08T16:04:08.310Z,11.70
2023-04-08T16:06:38.520Z,11.70
2023-04-08T16:09:07.541Z,11.70
2023-04-08T16:11:36.167Z,11.70
2023-04-08T16:14:05.365Z,11.70
2023-04-08T16:16:33.965Z,11.70
2023-04-08T16:19:03.525Z,11.70
2023-04-08T16:21:32.952Z,11.70
2023-04-08T16:24:03.657Z,11.70
2023-04-08T16:26:32.220Z,11.70
2023-04-08T16:29:00.993Z,11.70
2023-04-08T16:33:59.506Z,11.70
2023-04-08T16:36:28.181Z,11.70
2023-04-08T16:38:56.501Z,11.70
2023-04-08T16:41:26.823Z,11.70
2023-04-08T16:43:55.165Z,11.70
2023-04-08T16:46:23.568Z,11.70
2023-04-08T16:48:52.075Z,11.70
2023-04-08T16:51:21.356Z,11.70
2023-04-08T16:53:50.498Z,11.70
2023-04-08T16:56:19.467Z,11.70
2023-04-08T16:58:49.193Z,11.70
2023-04-08T17:01:17.837Z,11.70
2023-04-08T17:03:47.780Z,11.70
2023-04-08T17:06:17.292Z,11.70
2023-04-08T17:08:46.193Z,11.70
2023-04-08T17:11:15.950Z,11.70
2023-04-08T17:13:45.268Z,11.70
2023-04-08T17:16:16.391Z,11.70
2023-04-08T17:18:46.490Z,11.70
2023-04-08T17:21:15.750Z,11.70
2023-04-08T17:23:44.394Z,11.80
2023-04-08T17:26:13.634Z,11.70
2023-04-08T17:28:43.212Z,11.70
2023-04-08T17:31:12.322Z,11.70
2023-04-08T17:33:42.398Z,11.70
2023-04-08T17:36:10.710Z,11.70
2023-04-08T17:38:40.058Z,11.70
2023-04-08T17:41:10.131Z,11.70
2023-04-08T17:43:39.019Z,11.70
2023-04-08T17:46:08.001Z,11.70
2023-04-08T17:48:36.531Z,11.70
2023-04-08T17:51:07.593Z,11.70
2023-04-08T17:53:36.022Z,11.70
2023-04-08T17:56:06.077Z,11.70
2023-04-08T17:58:34.418Z,11.80
2023-04-08T18:01:03.072Z,11.70
2023-04-08T18:03:32.232Z,11.70
2023-04-08T18:06:00.939Z,11.70
2023-04-08T18:08:30.945Z,11.80
2023-04-08T18:10:59.565Z,11.70
2023-04-08T18:13:28.656Z,11.70
2023-04-08T18:15:57.424Z,11.70
2023-04-08T18:18:26.243Z,11.70
2023-04-08T18:20:54.720Z,11.70
2023-04-08T18:23:23.467Z,11.70
2023-04-08T18:25:53.282Z,11.70
2023-04-08T18:28:22.528Z,11.80
2023-04-08T18:30:53.231Z,11.80
2023-04-08T18:33:21.690Z,11.80
2023-04-08T18:35:50.047Z,11.80
2023-04-08T18:38:18.426Z,11.80
2023-04-08T18:40:46.931Z,11.70
2023-04-08T18:43:16.714Z,11.70
2023-04-08T18:45:45.786Z,11.70
2023-04-08T18:48:14.322Z,11.80
2023-04-08T18:50:42.856Z,11.80
2023-04-08T18:53:12.403Z,11.80
2023-04-08T18:55:42.124Z,11.80
2023-04-08T18:58:10.605Z,11.80
2023-04-08T19:00:41.479Z,11.80
2023-04-08T19:03:10.397Z,11.80
2023-04-08T19:05:39.370Z,11.80
2023-04-08T19:08:07.946Z,11.80
2023-04-08T19:10:36.955Z,11.80
2023-04-08T19:13:05.783Z,11.70
2023-04-08T19:15:34.376Z,11.70
2023-04-08T19:18:04.743Z,11.80
2023-04-08T19:20:33.757Z,11.70
2023-04-08T19:23:02.329Z,11.70
2023-04-08T19:25:30.825Z,11.70
2023-04-08T19:27:59.538Z,11.70
2023-04-08T19:30:28.078Z,11.80
2023-04-08T19:32:56.421Z,11.70
2023-04-08T19:35:26.605Z,11.70
2023-04-08T19:37:55.026Z,11.80
2023-04-08T19:40:23.382Z,11.80
2023-04-08T19:42:51.798Z,11.80
2023-04-08T19:45:20.591Z,11.80
2023-04-08T19:47:49.276Z,11.70
2023-04-08T19:50:17.683Z,11.80
2023-04-08T19:52:47.752Z,11.80
2023-04-08T19:55:16.417Z,11.70
2023-04-08T19:57:45.345Z,11.80
2023-04-08T20:00:14.542Z,11.80
2023-04-08T20:02:43.371Z,11.80
2023-04-08T20:05:14.921Z,11.80
2023-04-08T20:07:43.758Z,11.80
2023-04-08T20:10:13.725Z,11.80
2023-04-08T20:12:42.360Z,11.70
2023-04-08T20:15:23.736Z,11.80
2023-04-08T20:17:53.832Z,11.80
2023-04-08T20:20:22.791Z,11.80
2023-04-08T20:22:51.436Z,11.80
2023-04-08T20:25:21.393Z,11.80
2023-04-08T20:27:49.738Z,11.80
2023-04-08T20:30:18.459Z,11.80
2023-04-08T20:32:47.132Z,11.80
2023-04-08T20:35:16.049Z,11.80
2023-04-08T20:37:44.484Z,11.80
2023-04-08T20:40:13.608Z,11.80
2023-04-08T20:42:43.606Z,11.80
2023-04-08T20:45:12.767Z,11.80
2023-04-08T20:47:41.263Z,11.80
2023-04-08T20:50:10.782Z,11.80
2023-04-08T20:52:39.573Z,11.80
2023-04-08T20:55:09.329Z,11.80
2023-04-08T20:57:37.862Z,11.80
2023-04-08T21:00:09.714Z,11.80
2023-04-08T21:02:38.287Z,11.80
2023-04-08T21:05:08.308Z,11.80
2023-04-08T21:07:38.481Z,11.80
2023-04-08T21:10:08.336Z,11.80
2023-04-08T21:12:36.680Z,11.80
2023-04-08T21:15:05.358Z,11.80
2023-04-08T21:17:35.251Z,11.80
2023-04-08T21:20:04.481Z,11.80
2023-04-08T21:22:33.385Z,11.80
2023-04-08T21:25:01.820Z,11.80
2023-04-08T21:27:30.392Z,11.80
2023-04-08T21:29:59.124Z,11.80
2023-04-08T21:32:29.938Z,11.80
2023-04-08T21:35:00.112Z,11.80
2023-04-08T21:37:28.972Z,11.80
2023-04-08T21:39:57.544Z,11.80
2023-04-08T21:42:27.575Z,11.80
2023-04-08T21:44:56.645Z,11.80
2023-04-08T21:47:25.127Z,11.80
2023-04-08T21:49:53.549Z,11.80
2023-04-08T21:52:23.600Z,11.80
2023-04-08T21:54:52.547Z,11.80
2023-04-08T21:57:21.302Z,11.80
2023-04-08T21:59:50.344Z,11.80
2023-04-08T22:02:18.873Z,11.80
2023-04-08T22:04:47.526Z,11.80
2023-04-08T22:07:16.235Z,11.80
2023-04-08T22:09:46.335Z,11.80
2023-04-08T22:12:14.691Z,11.80
2023-04-08T22:14:43.795Z,11.80
2023-04-08T22:17:12.750Z,11.80
2023-04-08T22:19:41.273Z,11.80
2023-04-08T22:22:10.225Z,11.80
2023-04-08T22:24:38.648Z,11.80
2023-04-08T22:27:08.764Z,11.80
2023-04-08T22:29:37.511Z,11.80
2023-04-08T22:32:07.464Z,11.80
2023-04-08T22:34:36.858Z,11.80
2023-04-08T22:37:05.426Z,11.80
2023-04-08T22:39:33.853Z,11.80
2023-04-08T22:42:02.123Z,11.80
2023-04-08T22:44:32.238Z,11.80
2023-04-08T22:47:00.596Z,11.80
2023-04-08T22:49:29.531Z,11.80
2023-04-08T22:51:58.092Z,11.80
2023-04-08T22:54:26.515Z,11.80
2023-04-08T22:56:54.798Z,11.80
2023-04-08T22:59:23.547Z,11.80
2023-04-08T23:01:53.361Z,11.80
2023-04-08T23:04:21.880Z,11.80
2023-04-08T23:06:50.417Z,11.80
2023-04-08T23:09:19.474Z,11.80
2023-04-08T23:11:47.814Z,11.80
2023-04-08T23:14:16.247Z,11.80
2023-04-08T23:16:44.699Z,11.80
2023-04-08T23:19:14.620Z,11.80
2023-04-08T23:21:43.316Z,11.80
2023-04-08T23:24:11.962Z,11.80
2023-04-08T23:26:40.745Z,11.80
2023-04-08T23:29:09.085Z,11.80
2023-04-08T23:31:37.598Z,11.80
2023-04-08T23:34:06.071Z,11.80
2023-04-08T23:36:35.892Z,11.80
2023-04-08T23:39:04.675Z,11.80
2023-04-08T23:41:33.081Z,11.80
2023-04-08T23:44:01.852Z,11.80
2023-04-08T23:46:30.467Z,11.80
2023-04-08T23:48:58.935Z,11.80
2023-04-08T23:51:27.946Z,11.80
2023-04-08T23:53:57.705Z,11.80
2023-04-08T23:56:26.342Z,11.80
2023-04-08T23:58:55.081Z,11.70
